Tiempo atmosférico en la estación meteorológica de Logroño Aeropuerto, La Rioja (353 m.)



Fecha
DESCASC
Temp. máxima en grados centígrados (hora)
DESCASC
Temp. mínima en grados centígrados (hora)
DESCASC
Temp. media en grados centígrados
DESCASC
Racha de viento máxima en m/sg (hora)
DESCASC
Velocidad máxima media en intervalos de 10 minutos(hora)
DESCASC
Precipitaciones diarias en mm
DESCASC
Precipitaciones de 00:00 a 06:00 en mm
DESCASC
Precipitaciones de 06:00 a 12:00 en mm
DESCASC
Precipitaciones de 12:00 a 18:00 en mm
DESCASC
Precipitaciones de 18:00 a 24:00 en mm
DESCASC
20-09-2018 31.3 (17:20) 14.7 (08:30) 23 6.11 (15:10) 3.89 (18:30) 0 0 0 0 0
19-09-2018 31.5 (17:20) 14.9 (08:10) 23.2 5.83 (16:10) 2.5 (14:30) 0 0 0 0 0
18-09-2018 28.9 (18:00) 16.2 (03:30) 22.6 5.83 (11:20) 3.89 (11:20) 0 0 0 0 0
17-09-2018 30.8 (17:40) 14.1 (07:20) 22.4 15.28 (18:50) 8.89 (18:50) 3.5 0 0 0 3.5
16-09-2018 30.5 (17:00) 13.9 (00:00) 22.2 6.11 (15:20) 3.89 (18:10) 0 0 0 0 0
15-09-2018 29.1 (17:20) 14.7 (00:00) 21.9 7.78 (15:50) 5.83 (18:40) 0 0 0 0 0
14-09-2018 28.5 (17:40) 15 (00:00) 21.8 5.83 (10:10) 3.89 (10:20) 0 0 0 0 0
13-09-2018 27.2 (16:50) 17.9 (00:00) 22.6 7.22 (17:10) 4.17 (11:40) 0 0 0 0 0
12-09-2018 29.7 (18:00) 16.3 (00:00) 23 7.78 (16:20) 4.17 (19:30) 0 0 0 0 0
11-09-2018 29.9 (17:20) 13.3 (00:00) 21.6 10.83 (16:40) 7.22 (17:00) 0 0 0 0 0
10-09-2018 28.2 (17:40) 16.4 (00:00) 22.3 6.67 (21:50) 4.44 (22:10) 0 0 0 0 0
09-09-2018 26.7 (18:10) 15.5 (00:00) 21.1 9.72 (18:20) 3.89 (19:30) 1.8 1.8 0 0 0
08-09-2018 28.8 (15:20) 14.3 (00:00) 21.5 10.28 (15:10) 8.06 (15:10) 2.2 0 0 1.6 0.6
07-09-2018 26.7 (17:30) 14.3 (00:00) 20.5 5.83 (03:10) 4.17 (19:10) 0 0 0 0 0
06-09-2018 24.8 (15:10) 16.3 (00:00) 20.5 7.22 (18:10) 3.89 (14:10) 0 0 0 0 0
05-09-2018 23.3 (13:20) 15.3 (00:00) 19.3 7.78 (16:30) 4.72 (16:30) 11.9 0.9 0 8 3
04-09-2018 29.8 (17:10) 14.7 (00:00) 22.2 7.22 (19:20) 5 (22:20) 2.2 0 0 0 2.2
03-09-2018 30.5 (17:40) 13.9 (00:00) 22.2 5.83 (19:20) 3.33 (23:30) 0 0 0 0 0
02-09-2018 34.1 (17:30) 12.6 (00:00) 23.3 5.83 (20:40) 3.89 (21:00) 0 0 0 0 0
01-09-2018 32.4 (18:10) 14.9 (00:00) 23.7 8.33 (19:10) 5.83 (19:10) 0 0 0 0 0
31-08-2018 28.7 (16:40) 14.3 (00:00) 21.5 7.78 (18:10) 5 (18:30) 0 0 0 0 0
30-08-2018 29 (17:20) 16.1 (00:00) 22.6 6.67 (18:40) 3.61 (18:40) 0 0 0 0 0
29-08-2018 29.6 (16:00) 17.7 (00:00) 23.7 10.28 (18:00) 5.83 (19:00) 0 0 0 0 0
28-08-2018 37.8 (18:00) 16.8 (00:00) 27.3 13.33 (14:50) 10 (13:10) 0 0 0 0 0
27-08-2018 34.3 (18:50) 15.2 (00:00) 24.7 6.11 (14:20) 3.61 (16:50) 0 0 0 0 0
26-08-2018 30.8 (18:00) 12.5 (00:00) 21.6 4.72 (14:40) 3.06 (17:40) 0 0 0 0 0
25-08-2018 25 (16:00) 13 (00:00) 19 12.5 (17:40) 5.28 (17:40) 0 0 0 0 0
24-08-2018 26.5 (15:20) 16.6 (00:00) 21.6 8.33 (19:00) 5.28 (14:10) 0 0 0 0 0
23-08-2018 28.4 (17:50) 18.7 (00:00) 23.6 7.78 (19:20) 4.44 (19:10) 0 0 0 0 0

Gráficas

Temp. máximas Temp. mínimas Temp. medias Precipitaciones Rachas de viento máximas Velocidades máximas media en intervalos de 10 minutos

Datos horarios

Fecha y hora oficial Temperatura (ºC) Velocidad del viento (km/h) Dirección del viento Racha (km/h) Dirección de racha Precipitación (mm) Presión (hPa) Tendencia (hPa) Humedad (%)
2018-09-21 23:00:00 19.4 8 Oeste 11 Sudoeste 0 981.3 2.4 71
2018-09-21 22:00:00 20.1 6 Este 15 Sudeste 0 980.6 2.5 65
2018-09-21 21:00:00 21.2 10 Este 15 Nordeste 0 979.8 2.1 61
2018-09-21 20:00:00 23.1 13 Nordeste 22 Nordeste 0 978.9 1.6 55
2018-09-21 19:00:00 25.9 12 Norte 24 Norte 0 978.1 1 39
2018-09-21 18:00:00 27.3 18 Norte 30 Norte 0 977.7 0.3 34
2018-09-21 17:00:00 28.3 12 Norte 24 Noroeste 0 977.3 -0.6 34
2018-09-21 16:00:00 28 7 Oeste 18 Oeste 0 977.1 -1.4 34
2018-09-21 15:00:00 27.5 14 Oeste 18 Oeste 0 977.4 -1 35
2018-09-21 14:00:00 27.1 9 Oeste 18 Noroeste 0 977.9 -0.2 35
2018-09-21 13:00:00 25.4 11 Oeste 18 Oeste 0 978.5 1.1 45
2018-09-21 12:00:00 24.4 10 Oeste 17 Oeste 0 978.4 1.3 49
2018-09-21 11:00:00 21.8 10 Oeste 17 Oeste 0 978.1 1.8 60
2018-09-21 10:00:00 18.9 9 Oeste 13 Oeste 0 977.4 1.8 74
2018-09-21 09:00:00 18.1 8 Oeste 13 Oeste 0 977.1 1.9 77
2018-09-21 08:00:00 16.8 7 Oeste 11 Oeste 0 976.3 1.3 85
2018-09-21 07:00:00 16.6 7 Oeste 9 Sudoeste 0 975.6 0.6 90
2018-09-21 06:00:00 17.1 8 Oeste 9 Sudoeste 0 975.2 0 85
2018-09-21 05:00:00 17.8 5 Sudoeste 5 Oeste 0 975 -0.1 86
2018-09-21 04:00:00 19.1 5 Oeste 11 Oeste 0 975 0 78
2018-09-21 03:00:00 19.5 10 Oeste 13 Oeste 0 975.2 0.4 79
2018-09-21 02:00:00 19.3 8 Oeste 9 Noroeste 0 975.1 0.4 84
2018-09-21 01:00:00 20.1 6 Oeste 9 Oeste 0 975 0.5 80
2018-09-21 00:00:00 19.6 0 Calma 8 Sudeste 0 974.8 0.8 81
2018-09-20 23:00:00 20.4 -- -- -- -- 0 974.7 0.9 82
2018-09-20 22:00:00 21.4 5 Oeste 8 Oeste 0 974.5 0.7 78
2018-09-20 21:00:00 22.8 0 Calma 9 Sudeste 0 974 -0.1 71
2018-09-20 20:00:00 28 5 Sudeste 18 Este 0 973.8 -1 51
2018-09-20 19:00:00 30.6 13 Este 18 Este 0 973.8 -1.5 36
2018-09-20 18:00:00 31 10 Este 18 Este 0 974.1 -1.9 36
2018-09-20 17:00:00 30.8 7 Nordeste 18 Este 0 974.8 -2.1 36
2018-09-20 16:00:00 30.4 13 Este 22 Este 0 975.3 -2.5 39
2018-09-20 15:00:00 29.3 11 Este 17 Este 0 976 -2.4 42
2018-09-20 14:00:00 27.5 11 Este 21 Este 0 976.9 -1.9 48
2018-09-20 13:00:00 25.9 11 Este 17 Este 0 977.8 -1 54
2018-09-20 12:00:00 23.8 9 Este 15 Este 0 978.4 -0.4 63
2018-09-20 11:00:00 21.4 3 Oeste 9 Oeste 0 978.8 0 74
2018-09-20 10:00:00 19 3 Oeste 8 Oeste 0 978.8 0.1 85
2018-09-20 09:00:00 16.2 0 Calma 4 Nordeste 0 978.8 0 94
2018-09-20 08:00:00 15 0 Calma 5 Norte 0 978.8 0 93
2018-09-20 07:00:00 16.6 0 Calma 4 Oeste 0 978.7 -0.1 95
2018-09-20 06:00:00 16.9 0 Calma 8 Oeste 0 978.8 -0.1 92
2018-09-20 05:00:00 18 8 Oeste 13 Oeste 0 978.8 -0.2 89
2018-09-20 04:00:00 18.5 9 Oeste 13 Oeste 0 978.8 -0.1 88
2018-09-20 03:00:00 19.1 11 Oeste 15 Oeste 0 978.9 0.2 85
2018-09-20 02:00:00 19.9 10 Oeste 15 Oeste 0 979 0.6 82
2018-09-20 01:00:00 19.8 9 Sudoeste 11 Oeste 0 978.9 1 80
2018-09-20 00:00:00 19.6 0 Calma 5 Noroeste 0 978.7 1.6 83
2018-09-19 23:00:00 20.4 0 Calma -- -- 0 978.4 1.7 80
2018-09-19 22:00:00 21.5 0 Calma 11 Nordeste 0 977.9 1.4 73
2018-09-19 21:00:00 22.6 4 Norte 11 Sur 0 977.1 0.7 65
2018-09-19 20:00:00 25.1 0 Calma 8 Este 0 976.7 -0.1 60
2018-09-19 19:00:00 30 6 Este 11 Este 0 976.5 -0.9 34
2018-09-19 18:00:00 30.4 4 Noroeste 13 Nordeste 0 976.4 -1.7 46
2018-09-19 17:00:00 31.1 2 Este 21 Norte 0 976.8 -2 32
2018-09-19 16:00:00 30.3 8 Sudeste 17 Sudeste 0 977.4 -2 34
2018-09-19 15:00:00 28.4 6 Este 15 Sudeste 0 978.1 -1.7 44
2018-09-19 14:00:00 26.9 7 Nordeste 18 Este 0 978.8 -1.1 51
2018-09-19 13:00:00 25.3 4 Este 11 Sur 0 979.4 0 58
2018-09-19 12:00:00 23.5 3 Sudeste 9 Este 0 979.8 1 64
2018-09-19 11:00:00 20.8 3 Oeste 9 Oeste 0 979.9 1.8 76
2018-09-19 10:00:00 18.6 4 Oeste 8 Oeste 0 979.4 1.8 85
2018-09-19 09:00:00 16.6 0 Calma 4 Oeste 0 978.8 1.4 96
2018-09-19 08:00:00 15.1 0 Calma 4 Norte 0 978.1 0.6 97
2018-09-19 07:00:00 15.1 0 Calma -- -- 0 977.6 0.3 94
2018-09-19 06:00:00 16.5 0 Calma 5 Oeste 0 977.4 0 93
2018-09-19 05:00:00 17.4 6 Oeste 11 Oeste 0 977.5 0.1 92
2018-09-19 04:00:00 17.3 8 Sudoeste 9 Oeste 0 977.3 -0.1 93
2018-09-19 03:00:00 17.6 5 Oeste 9 Oeste 0 977.4 0.4 93
2018-09-19 02:00:00 17.6 0 Calma 8 Oeste 0 977.4 0.8 90
2018-09-19 01:00:00 18.7 4 Sudoeste -- -- 0 977.4 1.6 88
2018-09-19 00:00:00 19.5 4 Este 9 Sudeste 0 977 2.6 83
2018-09-18 23:00:00 19.8 4 Sudeste 11 Este 0 976.6 2.8 80
2018-09-18 22:00:00 20.6 9 Oeste 11 Oeste 0 975.8 2.3 79
2018-09-18 21:00:00 21.8 0 Calma 5 Sur 0 974.4 1.1 75
2018-09-18 20:00:00 25.5 0 Calma 13 Este 0 973.8 0.2 63
2018-09-18 19:00:00 28.2 9 Este 15 Este 0 973.5 -0.1 44
2018-09-18 18:00:00 28.7 5 Noroeste 8 Noroeste 0 973.3 -0.7 48
2018-09-18 17:00:00 27.9 4 Oeste 11 Oeste 0 973.6 -1.2 48
2018-09-18 16:00:00 27.4 4 Noroeste 13 Norte 0 973.6 -1.7 51
2018-09-18 15:00:00 26.6 7 Noroeste 15 Norte 0 974 -1.9 54
2018-09-18 14:00:00 25.9 6 Nordeste 15 Este 0 974.8 -1 55
2018-09-18 13:00:00 24.5 8 Este 18 Nordeste 0 975.3 -0.1 61
2018-09-18 12:00:00 23 12 Este 21 Este 0 975.9 1 70
2018-09-18 11:00:00 20.6 13 Este 17 Sudeste 0 975.8 1.4 84
2018-09-18 10:00:00 19.5 6 Sudeste 11 Este 0 975.4 1.3 89
2018-09-18 09:00:00 18 7 Este 15 Sudeste 0 974.9 0.9 92
2018-09-18 08:00:00 17.1 0 Calma 4 Oeste 0 974.4 0.7 96
2018-09-18 07:00:00 16.8 3 Sudeste 11 Este 0 974.1 0.4 94
2018-09-18 06:00:00 18 3 Este 13 Este 0 974 0 93
2018-09-18 05:00:00 17.6 8 Este 15 Este 0 973.7 -0.3 95
2018-09-18 04:00:00 17 7 Este 11 Nordeste 0 973.7 -0.3 95
2018-09-18 03:00:00 16.9 6 Nordeste 11 Nordeste 0 974 -0.2 94
2018-09-18 02:00:00 17.6 4 Este 9 Oeste 0 974 -0.2 93
2018-09-18 01:00:00 18.1 4 Sudoeste 8 Sudoeste 0 974 -0.4 93
2018-09-18 00:00:00 18 2 Nordeste 8 Oeste 0 974.2 0.3 92
2018-09-17 23:00:00 18.4 0 Calma 9 Sudoeste 0 974.2 0 91
2018-09-17 22:00:00 18.2 9 Oeste 11 Oeste 0 974.4 0.3 90
2018-09-17 21:00:00 19.9 9 Sudoeste 22 Sudoeste 1.8 973.9 1.9 78
2018-09-17 20:00:00 18.7 15 Sudoeste 41 Oeste 1.7 974.2 1.5 83
2018-09-17 19:00:00 21.7 30 Oeste 55 Oeste 0 974.1 0.5 56
2018-09-17 18:00:00 28.8 18 Este 33 Este 0 972 -2.6 37
2018-09-17 17:00:00 30.5 26 Este 35 Este 0 972.7 -2.7 37
2018-09-17 16:00:00 28.5 20 Este 37 Este 0 973.6 -2.7 44
2018-09-17 15:00:00 29.1 20 Este 35 Este 0 974.6 -2.4 47
2018-09-17 14:00:00 27.2 21 Este 32 Este 0 975.4 -1.9 53
2018-09-17 13:00:00 25.8 22 Este 33 Este 0 976.3 -1.2 58
2018-09-17 12:00:00 24.1 21 Este 33 Este 0 977 -0.3 64
2018-09-17 11:00:00 21.6 21 Este 32 Nordeste 0 977.3 0.1 75
2018-09-17 10:00:00 20.2 22 Este 35 Este 0 977.5 0.5 79
2018-09-17 09:00:00 18.2 10 Este 13 Este 0 977.3 0.2 86
2018-09-17 08:00:00 15 8 Este 11 Este 0 977.2 0 93
2018-09-17 07:00:00 14.3 0 Calma 5 Este 0 977 -0.5 87
2018-09-17 06:00:00 15.2 0 Calma -- -- 0 977.1 -0.5 88
2018-09-17 05:00:00 16.1 0 Calma 4 Nordeste 0 977.2 -0.4 86
2018-09-17 04:00:00 17.3 0 Calma 5 Norte 0 977.5 0.1 85
2018-09-17 03:00:00 17.8 0 Calma 8 Sudoeste 0 977.6 0.2 86
2018-09-17 02:00:00 18.8 7 Oeste 8 Oeste 0 977.6 0.2 84
2018-09-17 01:00:00 19.6 6 Sudoeste 9 Oeste 0 977.4 0.6 79
2018-09-17 00:00:00 20.9 3 Nordeste -- -- 0 977.4 1.2 70
2018-09-16 23:00:00 22 8 Este 11 Este 0 977.4 1.4 62
2018-09-16 22:00:00 22.3 0 Calma 8 Norte 0 976.8 0.9 70
2018-09-16 21:00:00 23 2 Norte 8 Nordeste 0 976.2 0.3 69
2018-09-16 20:00:00 26.6 8 Este 13 Este 0 976 -0.1 47
2018-09-16 19:00:00 29.1 12 Este 21 Este 0 975.9 -0.8 36
2018-09-16 18:00:00 30 14 Sudeste 22 Este 0 975.9 -1.5 34
2018-09-16 17:00:00 30.3 13 Este 21 Este 0 976.1 -1.8 35
2018-09-16 16:00:00 29.3 11 Este 22 Este 0 976.7 -1.9 38
2018-09-16 15:00:00 28.5 10 Este 18 Este 0 977.4 -1.6 41
2018-09-16 14:00:00 26.9 10 Este 21 Este 0 977.9 -1.6 46
2018-09-16 13:00:00 25.2 10 Este 18 Este 0 978.6 -0.9 51
2018-09-16 12:00:00 23.4 14 Este 18 Este 0 979 -0.3 58
2018-09-16 11:00:00 22.1 9 Este 15 Este 0 979.5 0.8 64
2018-09-16 10:00:00 19.9 0 Calma 5 Sur 0 979.5 1.3 71
2018-09-16 09:00:00 16 2 Sudoeste 5 Oeste 0 979.3 1.6 88
2018-09-16 08:00:00 14 0 Calma 8 Oeste 0 978.7 1.1 92
2018-09-16 07:00:00 14.6 2 Oeste 9 Sudeste 0 978.2 0.2 91
2018-09-16 06:00:00 15.6 5 Este 9 Este 0 977.7 -0.6 87
2018-09-16 05:00:00 16.5 9 Este 11 Este 0 977.6 -0.9 82
2018-09-16 04:00:00 17 9 Este 13 Este 0 978 -0.6 77
2018-09-16 03:00:00 17 3 Sudeste 11 Este 0 978.3 -0.3 79
2018-09-16 02:00:00 18.2 8 Este 11 Este 0 978.5 0.1 74
2018-09-16 01:00:00 18.2 7 Este 11 Este 0 978.6 0.6 75
2018-09-16 00:00:00 18.6 9 Este 13 Nordeste 0 978.6 1.1 73
2018-09-15 23:00:00 19.9 10 Este 11 Este 0 978.4 1.4 68
2018-09-15 22:00:00 20.3 0 Calma 4 Noroeste 0 978 1.4 70
2018-09-15 21:00:00 22.1 0 Calma 17 Este 0 977.5 1.2 62
2018-09-15 20:00:00 25.5 14 Este 26 Este 0 977 0.4 45
2018-09-15 19:00:00 27.7 19 Este 28 Este 0 976.6 -0.3 35
2018-09-15 18:00:00 28.8 16 Este 26 Sudeste 0 976.3 -1.6 34
2018-09-15 17:00:00 28.7 17 Este 26 Nordeste 0 976.6 -1.9 34
2018-09-15 16:00:00 27.8 17 Nordeste 28 Este 0 976.9 -2.2 41
2018-09-15 15:00:00 27.1 13 Este 21 Sudeste 0 977.9 -2 41
2018-09-15 14:00:00 25.8 8 Este 17 Este 0 978.5 -1.6 43
2018-09-15 13:00:00 24 6 Nordeste 15 Nordeste 0 979.1 -1 47
2018-09-15 12:00:00 22.3 4 Sudoeste 9 Sudoeste 0 979.9 -0.1 54
2018-09-15 11:00:00 20.5 5 Oeste 13 Oeste 0 980.1 0.5 63
2018-09-15 10:00:00 18.4 6 Oeste 11 Sudoeste 0 980.1 0.7 72
2018-09-15 09:00:00 16.4 6 Sudoeste 9 Oeste 0 980 0.7 76
2018-09-15 08:00:00 14.8 6 Oeste 9 Oeste 0 979.6 0.1 86
2018-09-15 07:00:00 16.3 4 Oeste 13 Oeste 0 979.4 -0.1 77
2018-09-15 06:00:00 17.4 3 Oeste 8 Oeste 0 979.3 -0.4 82
2018-09-15 05:00:00 17.3 3 Oeste 11 Sudoeste 0 979.5 -0.3 82
2018-09-15 04:00:00 17.3 8 Oeste 11 Oeste 0 979.5 -0.3 82
2018-09-15 03:00:00 17.3 8 Oeste 13 Oeste 0 979.7 0.1 81
2018-09-15 02:00:00 18.1 9 Oeste 15 Sudoeste 0 979.8 0.5 77
2018-09-15 01:00:00 18.4 3 Oeste 9 Oeste 0 979.8 0.9 77
2018-09-15 00:00:00 18 2 Oeste 13 Sur 0 979.6 1.7 80
2018-09-14 23:00:00 19.3 2 Sur 11 Sudeste 0 979.3 2.4 74
2018-09-14 22:00:00 20.8 9 Sudeste 17 Sudeste 0 978.9 2.6 66
2018-09-14 21:00:00 22 9 Sudeste 13 Sudeste 0 977.9 2 63
2018-09-14 20:00:00 24.6 2 Oeste 18 Norte 0 976.9 0.8 56
2018-09-14 19:00:00 26.4 9 Noroeste 18 Noroeste 0 976.3 -0.3 49
2018-09-14 18:00:00 28.1 12 Oeste 17 Oeste 0 975.9 -1.4 44
2018-09-14 17:00:00 28 11 Oeste 18 Oeste 0 976.1 -1.9 43
2018-09-14 16:00:00 27.5 11 Oeste 18 Sudoeste 0 976.6 -2 43
2018-09-14 15:00:00 26.4 9 Oeste 17 Oeste 0 977.3 -1.7 46
2018-09-14 14:00:00 24.7 10 Oeste 21 Oeste 0 978 -1.2 50
2018-09-14 13:00:00 22.9 13 Oeste 21 Sudoeste 0 978.6 -0.5 55
2018-09-14 12:00:00 21.4 13 Oeste 21 Oeste 0 979 0.1 60
2018-09-14 11:00:00 20.2 13 Oeste 21 Oeste 0 979.2 0.4 65
2018-09-14 10:00:00 18.2 11 Oeste 17 Oeste 0 979.1 0.6 74
2018-09-14 09:00:00 16.3 9 Oeste 11 Oeste 0 978.9 0.5 83
2018-09-14 08:00:00 15 7 Oeste 13 Oeste 0 978.8 0.1 89
2018-09-14 07:00:00 15.2 9 Oeste 13 Oeste 0 978.5 -0.3 87
2018-09-14 06:00:00 15.2 6 Oeste 11 Oeste 0 978.4 -0.7 89
2018-09-14 05:00:00 15.3 7 Oeste 11 Sudoeste 0 978.7 -0.6 88
2018-09-14 04:00:00 15.5 7 Oeste 11 Oeste 0 978.8 -0.6 86
2018-09-14 03:00:00 16.2 7 Sudoeste 11 Oeste 0 979.1 -0.1 83
2018-09-14 02:00:00 16.2 6 Oeste 9 Oeste 0 979.3 0.3 85
2018-09-14 01:00:00 16.9 6 Oeste 11 Sudoeste 0 979.4 0.7 81
2018-09-14 00:00:00 18 7 Oeste 13 Oeste 0 979.2 1.3 72
2018-09-13 23:00:00 18.3 4 Oeste 11 Oeste 0 979 1.7 73
2018-09-13 22:00:00 19.2 7 Oeste 15 Sudoeste 0 978.7 1.4 69
2018-09-13 21:00:00 21.5 9 Oeste 15 Oeste 0 977.9 0.6 56
2018-09-13 20:00:00 23.8 6 Oeste 18 Norte 0 977.3 -0.3 49
2018-09-13 19:00:00 25.5 10 Noroeste 22 Norte 0 977.3 -0.8 44
2018-09-13 18:00:00 26.4 11 Noroeste 26 Noroeste 0 977.3 -1.6 41
2018-09-13 17:00:00 27 10 Noroeste 21 Norte 0 977.6 -2 39
2018-09-13 16:00:00 26.6 10 Noroeste 21 Oeste 0 978.1 -2.1 41
2018-09-13 15:00:00 25.3 13 Oeste 22 Noroeste 0 978.9 -1.5 46
2018-09-13 14:00:00 24.2 13 Oeste 24 Oeste 0 979.6 -0.6 50
2018-09-13 13:00:00 23.5 13 Oeste 24 Oeste 0 980.2 0.1 53
2018-09-13 12:00:00 22.8 13 Oeste 24 Sudoeste 0 980.4 0.4 56
2018-09-13 11:00:00 21.6 14 Oeste 22 Oeste 0 980.2 0.4 61
2018-09-13 10:00:00 19.6 8 Oeste 13 Oeste 0 980.1 0.5 69
2018-09-13 09:00:00 18.9 8 Oeste 15 Oeste 0 980 0.5 73
2018-09-13 08:00:00 18.5 5 Oeste 8 Oeste 0 979.8 0.2 81
2018-09-13 07:00:00 18.7 6 Oeste 9 Sudoeste 0 979.6 0.1 77
2018-09-13 06:00:00 18.4 6 Oeste 9 Oeste 0 979.5 -0.4 81
2018-09-13 05:00:00 18.5 5 Oeste 13 Noroeste 0 979.6 -0.8 81
2018-09-13 04:00:00 18.2 6 Oeste 13 Oeste 0 979.5 -1 82
2018-09-13 03:00:00 19.2 9 Oeste 15 Oeste 0 979.9 -0.6 79
2018-09-13 02:00:00 19.2 2 Oeste 11 Sudoeste 0 980.4 0.1 82
2018-09-13 01:00:00 19.4 3 Oeste 13 Noroeste 0 980.5 0.9 80
2018-09-13 00:00:00 19.6 5 Noroeste 9 Norte 0 980.5 1.8 80
2018-09-12 23:00:00 21 7 Sudoeste 13 Noroeste 0 980.3 2.4 74
2018-09-12 22:00:00 22.2 5 Oeste 13 Este 0 979.6 1.9 69
2018-09-12 21:00:00 23.8 10 Nordeste 24 Este 0 978.7 0.9 58
2018-09-12 20:00:00 26.9 10 Este 21 Este 0 977.9 -0.3 45
2018-09-12 19:00:00 28.9 4 Norte 13 Este 0 977.7 -0.9 41
2018-09-12 18:00:00 29.6 5 Norte 15 Norte 0 977.8 -1.6 36
2018-09-12 17:00:00 29 7 Este 28 Este 0 978.2 -2 37
2018-09-12 16:00:00 29 9 Nordeste 21 Este 0 978.6 -2.2 39
2018-09-12 15:00:00 27.9 11 Este 17 Este 0 979.4 -1.8 44
2018-09-12 14:00:00 26.4 9 Este 22 Este 0 980.2 -1 49
2018-09-12 13:00:00 25 8 Este 18 Este 0 980.8 0 55
2018-09-12 12:00:00 23.7 11 Este 18 Este 0 981.2 0.7 61
2018-09-12 11:00:00 20.5 4 Oeste 5 Oeste 0 981.2 1 75
2018-09-12 10:00:00 19 3 Norte 9 Noroeste 0 980.8 0.9 80
2018-09-12 09:00:00 17.4 4 Sudoeste 5 Sudoeste 0 980.5 0.6 86
2018-09-12 08:00:00 16.7 0 Calma 8 Sudoeste 0 980.2 0.3 90
2018-09-12 07:00:00 16.7 5 Oeste 8 Oeste 0 979.9 0 91
2018-09-12 06:00:00 16.5 0 Calma 4 Noroeste 0 979.9 -0.3 88
2018-09-12 05:00:00 16.5 0 Calma 8 Oeste 0 979.9 -0.6 86
2018-09-12 04:00:00 17.3 0 Calma 5 Oeste 0 979.9 -0.6 82
2018-09-12 03:00:00 16.9 4 Nordeste 11 Nordeste 0 980.2 -0.2 82
2018-09-12 02:00:00 17.4 4 Nordeste 8 Nordeste 0 980.5 0.2 81
2018-09-12 01:00:00 18.7 3 Oeste 13 Este 0 980.5 0.2 80
2018-09-12 00:00:00 20 11 Este 15 Este 0 980.4 0.6 66
2018-09-11 23:00:00 21.2 6 Este 11 Este 0 980.3 0.9 61
2018-09-11 22:00:00 20.6 4 Nordeste 15 Este 0 980.3 0.9 68
2018-09-11 21:00:00 21.8 9 Este 15 Este 0 979.8 0 57
2018-09-11 20:00:00 25 14 Este 26 Este 0 979.4 -0.4 46
2018-09-11 19:00:00 26.8 21 Este 32 Este 0 979.4 -0.8 37
2018-09-11 18:00:00 28.7 23 Este 37 Este 0 979.8 -1.2 35
2018-09-11 17:00:00 29.6 26 Este 39 Este 0 979.8 -2.1 36
2018-09-11 16:00:00 29.2 23 Este 35 Este 0 980.2 -2.4 41
2018-09-11 15:00:00 28.4 17 Este 32 Este 0 981 -2.1 44
2018-09-11 14:00:00 26.6 10 Este 15 Nordeste 0 981.9 -1.3 49
2018-09-11 13:00:00 24.9 5 Sudoeste 13 Este 0 982.6 -0.7 53
2018-09-11 12:00:00 22.6 6 Noroeste 11 Oeste 0 983.1 -0.1 61
2018-09-11 11:00:00 20.2 8 Oeste 13 Oeste 0 983.2 0.5 70
2018-09-11 10:00:00 17.9 7 Oeste 11 Oeste 0 983.3 0.9 84
2018-09-11 09:00:00 15.6 5 Oeste 8 Oeste 0 983.2 0.9 94
2018-09-11 08:00:00 14 4 Oeste 5 Oeste 0 982.7 0.4 96
2018-09-11 07:00:00 14.3 5 Oeste 8 Sudoeste 0 982.4 0 96
2018-09-11 06:00:00 14.3 0 Calma 4 Oeste 0 982.3 -0.1 96
2018-09-11 05:00:00 15 5 Oeste 8 Oeste 0 982.3 -0.2 96
2018-09-11 04:00:00 15 0 Calma -- -- 0 982.4 -0.2 95
2018-09-11 03:00:00 15.6 0 Calma 8 Oeste 0 982.4 -0.2 93
2018-09-11 02:00:00 16.4 0 Calma 11 Oeste 0 982.5 0.2 90
2018-09-11 01:00:00 17.2 4 Oeste 8 Oeste 0 982.6 0.7 88
2018-09-11 00:00:00 18.2 4 Oeste 11 Nordeste 0 982.6 1.9 85
2018-09-10 23:00:00 19.5 0 Calma 22 Sudeste 0 982.3 2.1 76
2018-09-10 22:00:00 22.2 15 Sudeste 24 Sudeste 0 981.9 1.7 63
2018-09-10 21:00:00 23.1 8 Sudeste 17 Este 0 980.7 0.4 61
2018-09-10 20:00:00 26 7 Sudoeste 13 Sur 0 980.2 -0.7 51
2018-09-10 19:00:00 27.4 5 Oeste 9 Oeste 0 980.2 -1.3 47
2018-09-10 18:00:00 27.8 4 Noroeste 11 Sudoeste 0 980.3 -1.7 43
2018-09-10 17:00:00 27.4 7 Oeste 13 Oeste 0 980.9 -1.7 45
2018-09-10 16:00:00 26.3 7 Oeste 18 Oeste 0 981.5 -1.6 48
2018-09-10 15:00:00 25 11 Oeste 17 Oeste 0 982 -1.2 50
2018-09-10 14:00:00 23.9 10 Oeste 22 Oeste 0 982.6 -0.6 53
2018-09-10 13:00:00 23 13 Oeste 22 Oeste 0 983.1 0.4 58
2018-09-10 12:00:00 22 10 Oeste 17 Oeste 0 983.2 1 66
2018-09-10 11:00:00 20.5 8 Oeste 13 Oeste 0 983.2 1.1 75
2018-09-10 10:00:00 18.8 9 Oeste 13 Oeste 0 982.7 1 83
2018-09-10 09:00:00 17.9 9 Oeste 13 Oeste 0 982.2 0.8 87
2018-09-10 08:00:00 17.4 4 Oeste 9 Oeste 0 982.1 0.8 90
2018-09-10 07:00:00 17.3 7 Oeste 11 Oeste 0 981.7 0.4 91
2018-09-10 06:00:00 16.8 5 Oeste 11 Oeste 0 981.4 -0.1 92
2018-09-10 05:00:00 16.8 6 Oeste 9 Oeste 0 981.3 -0.3 90
2018-09-10 04:00:00 17.2 4 Oeste 13 Oeste 0 981.3 0 87
2018-09-10 03:00:00 17.3 9 Sudoeste 11 Oeste 0 981.5 0.4 89
2018-09-10 02:00:00 17.8 5 Oeste 13 Oeste 0 981.6 0.5 86
2018-09-10 01:00:00 18.6 8 Oeste 17 Sudoeste 0 981.3 0.9 82
2018-09-10 00:00:00 19.6 8 Oeste 11 Oeste 0 981.1 1.8 76
2018-09-09 23:00:00 20.1 9 Oeste 15 Oeste 0 981.1 2.7 73
2018-09-09 22:00:00 20.4 10 Oeste 17 Oeste 0 980.4 2.8 72
2018-09-09 21:00:00 20.9 11 Oeste 17 Oeste 0 979.3 1.9 70
2018-09-09 20:00:00 22.4 4 Sudeste 22 Nordeste 0 978.4 1 65
2018-09-09 19:00:00 25.3 7 Oeste 35 Oeste 0 977.6 -0.3 55
2018-09-09 18:00:00 26.6 7 Oeste 9 Oeste 0 977.4 -1.1 50
2018-09-09 17:00:00 24.4 0 Calma 17 Sudeste 0 977.4 -1.3 64
2018-09-09 16:00:00 24.6 11 Sur 21 Sur 0 977.9 -0.9 61
2018-09-09 15:00:00 23.2 5 Sur 15 Sur 0 978.5 -0.5 66
2018-09-09 14:00:00 21.8 8 Sur 13 Sur 0 978.7 -0.3 71
2018-09-09 13:00:00 23.3 0 Calma 13 Sudeste 0 978.8 0.2 65
2018-09-09 12:00:00 21.1 2 Oeste 11 Noroeste 0 979 0.7 74
2018-09-09 11:00:00 21 5 Este 11 Este 0 979 0.9 77
2018-09-09 10:00:00 19.4 3 Este 9 Nordeste 0 978.6 0.5 85
2018-09-09 09:00:00 18 4 Este 5 Este 0 978.3 -0.1 90
2018-09-09 08:00:00 15.5 0 Calma 5 Este 0 978.1 0 96
2018-09-09 07:00:00 16.6 0 Calma 5 Este 0 978.1 0.8 96
2018-09-09 06:00:00 17.1 0 Calma 5 Este 1.7 978.4 1.1 96
2018-09-09 05:00:00 16.9 5 Nordeste 9 Oeste 0.1 978.1 0.6 94
2018-09-09 04:00:00 17 4 Oeste 8 Oeste 0 977.3 -0.1 94
2018-09-09 03:00:00 17.1 5 Oeste 9 Este 0 977.3 0.5 92
2018-09-09 02:00:00 17.5 8 Este 11 Este 0 977.5 0.7 90
2018-09-09 01:00:00 17.5 5 Este 18 Nordeste 0 977.4 0.8 93
2018-09-09 00:00:00 17.7 8 Este 13 Nordeste 0 976.8 0.5 93
2018-09-08 23:00:00 17.6 5 Nordeste 11 Este 0 976.8 0.7 94
2018-09-08 22:00:00 17.6 10 Nordeste 13 Nordeste 0 976.6 0.8 94
2018-09-08 21:00:00 17.9 8 Este 17 Sudoeste 0.2 976.3 1.7 93
2018-09-08 20:00:00 18.3 14 Oeste 33 Oeste 0.4 976.1 1.9 87
2018-09-08 19:00:00 20.2 19 Oeste 35 Oeste 0 975.8 1.7 77
2018-09-08 18:00:00 21.2 12 Sudoeste 21 Este 0.6 974.6 0.2 80
2018-09-08 17:00:00 23.4 12 Sudeste 26 Este 1 974.2 -0.8 67
2018-09-08 16:00:00 26.8 20 Este 37 Este 0 974.1 -1.5 45
2018-09-08 15:00:00 27.8 22 Este 35 Este 0 974.4 -1.8 44
2018-09-08 14:00:00 26.9 21 Este 32 Este 0 975 -1.3 46
2018-09-08 13:00:00 25.4 14 Este 28 Nordeste 0 975.6 -0.9 49
2018-09-08 12:00:00 23 14 Nordeste 24 Este 0 976.2 -0.1 57
2018-09-08 11:00:00 20.7 14 Este 18 Este 0 976.3 0.3 66
2018-09-08 10:00:00 18.4 5 Este 8 Nordeste 0 976.5 0.7 75
2018-09-08 09:00:00 16.1 5 Oeste 8 Oeste 0 976.3 0.7 90
2018-09-08 08:00:00 14.3 0 Calma 9 Oeste 0 976 0.4 94
2018-09-08 07:00:00 14.6 6 Oeste 8 Oeste 0 975.8 -0.3 93
2018-09-08 06:00:00 15 4 Oeste 8 Oeste 0 975.6 -0.6 94
2018-09-08 05:00:00 15.1 0 Calma 8 Oeste 0 975.6 -0.4 93
2018-09-08 04:00:00 15.1 0 Calma 8 Nordeste 0 976.1 -0.3 91
2018-09-08 03:00:00 15.4 3 Sudoeste 5 Sur 0 976.2 0 89
2018-09-08 02:00:00 15.4 0 Calma 8 Sudoeste 0 976 -0.3 88
2018-09-08 01:00:00 16.1 3 Oeste 8 Oeste 0 976.4 0.6 88
2018-09-08 00:00:00 16.9 2 Noroeste 11 Sur 0 976.2 1.7 83
2018-09-07 23:00:00 18.5 5 Sudeste 11 Este 0 976.3 2.2 70
2018-09-07 22:00:00 19 5 Oeste 11 Oeste 0 975.8 2 69
2018-09-07 21:00:00 20.3 7 Nordeste 18 Norte 0 974.5 0.6 64
2018-09-07 20:00:00 23 13 Norte 21 Norte 0 974.1 0 51
2018-09-07 19:00:00 25.3 14 Nordeste 21 Nordeste 0 973.8 -0.8 43
2018-09-07 18:00:00 25.8 6 Nordeste 18 Nordeste 0 973.9 -1.3 39
2018-09-07 17:00:00 26 6 Oeste 21 Oeste 0 974.1 -1.7 40
2018-09-07 16:00:00 25.2 6 Oeste 17 Norte 0 974.6 -1.9 41
2018-09-07 15:00:00 23.9 9 Oeste 21 Oeste 0 975.2 -1.6 49
2018-09-07 14:00:00 22.5 9 Oeste 18 Oeste 0 975.8 -1 55
2018-09-07 13:00:00 21.4 9 Oeste 15 Oeste 0 976.5 -0.1 62
2018-09-07 12:00:00 20.3 9 Oeste 15 Oeste 0 976.8 0.2 65
2018-09-07 11:00:00 19.1 9 Oeste 13 Oeste 0 976.8 0.5 74
2018-09-07 10:00:00 16.9 8 Oeste 11 Oeste 0 976.6 0.5 84
2018-09-07 09:00:00 15.3 6 Oeste 11 Noroeste 0 976.6 0.7 91
2018-09-07 08:00:00 14.4 7 Oeste 11 Oeste 0 976.3 0.4 93
2018-09-07 07:00:00 14.5 6 Oeste 9 Oeste 0 976.1 -0.1 93
2018-09-07 06:00:00 15.2 6 Oeste 11 Oeste 0 975.9 -0.3 88
2018-09-07 05:00:00 16.4 9 Oeste 13 Oeste 0 975.9 -0.5 82
2018-09-07 04:00:00 17.4 10 Oeste 21 Oeste 0 976.2 -0.3 75
2018-09-07 03:00:00 17.9 8 Oeste 15 Oeste 0 976.2 -0.2 73
2018-09-07 02:00:00 18 10 Oeste 17 Oeste 0 976.4 0.1 75
2018-09-07 01:00:00 18.5 8 Oeste 15 Oeste 0 976.5 0.4 71
2018-09-07 00:00:00 18.5 6 Oeste 15 Oeste 0 976.4 1.2 71
2018-09-06 23:00:00 18.5 11 Oeste 17 Oeste 0 976.3 1.8 70
2018-09-06 22:00:00 18.7 9 Noroeste 17 Norte 0 976.1 2.2 70
2018-09-06 21:00:00 19.1 10 Oeste 17 Noroeste 0 975.2 1.9 69
2018-09-06 20:00:00 22 6 Noroeste 22 Noroeste 0 974.5 1.4 59
2018-09-06 19:00:00 23.2 8 Noroeste 26 Noroeste 0 973.9 0.7 52
2018-09-06 18:00:00 23.9 13 Noroeste 24 Noroeste 0 973.3 -0.6 51
2018-09-06 17:00:00 23.4 8 Oeste 18 Noroeste 0 973.1 -1.2 52
2018-09-06 16:00:00 23.9 5 Oeste 18 Oeste 0 973.2 -1.4 49
2018-09-06 15:00:00 23.8 12 Oeste 24 Oeste 0 973.9 -0.7 49
2018-09-06 14:00:00 22.9 9 Noroeste 22 Noroeste 0 974.3 -0.5 54
2018-09-06 13:00:00 21.3 12 Oeste 18 Oeste 0 974.6 0 63
2018-09-06 12:00:00 21.5 11 Oeste 18 Oeste 0 974.6 0.2 66
2018-09-06 11:00:00 20.3 10 Oeste 17 Oeste 0 974.8 1 71
2018-09-06 10:00:00 18.1 10 Oeste 15 Oeste 0 974.6 1.3 83
2018-09-06 09:00:00 17.5 7 Oeste 13 Oeste 0 974.4 1.1 87
2018-09-06 08:00:00 17.6 8 Sudoeste 13 Oeste 0 973.8 0.5 84
2018-09-06 07:00:00 17.3 10 Oeste 15 Sudoeste 0 973.3 -0.1 88
2018-09-06 06:00:00 17 10 Oeste 13 Oeste 0 973.3 -0.6 91
2018-09-06 05:00:00 16.5 7 Oeste 11 Oeste 0 973.3 -0.8 94
2018-09-06 04:00:00 17.2 8 Oeste 17 Oeste 0 973.4 -0.6 91
2018-09-06 03:00:00 17.3 8 Oeste 15 Oeste 0 973.9 -0.4 92
2018-09-06 02:00:00 17.1 8 Oeste 11 Oeste 0 974.1 0.1 94
2018-09-06 01:00:00 17.5 7 Oeste 11 Oeste 0 974 0.5 92
2018-09-06 00:00:00 17.6 6 Oeste 13 Oeste 0 974.3 2 92
2018-09-05 23:00:00 17.6 4 Sudoeste 8 Oeste 0 974 1.5 94
2018-09-05 22:00:00 18.1 8 Oeste 11 Sudoeste 0 973.5 1.4 90
2018-09-05 21:00:00 18.6 9 Sudoeste 18 Sudoeste 1.3 972.3 0.2 92
2018-09-05 20:00:00 18.5 7 Oeste 15 Noroeste 1 972.5 0.2 92
2018-09-05 19:00:00 19.1 6 Oeste 18 Sur 0.7 972.1 -0.6 85
2018-09-05 18:00:00 19 11 Sudoeste 28 Sudoeste 0.8 972.1 -0.4 89
2018-09-05 17:00:00 18.6 16 Oeste 28 Oeste 2.4 972.3 -0.5 91
2018-09-05 16:00:00 19.2 13 Oeste 22 Oeste 4.7 972.7 -0.8 88
2018-09-05 15:00:00 21.4 9 Oeste 15 Oeste 0.1 972.5 -1.5 73
2018-09-05 14:00:00 22.9 5 Noroeste 13 Oeste 0 972.8 -1.2 64
2018-09-05 13:00:00 22.6 9 Norte 17 Noroeste 0 973.5 -0.2 66
2018-09-05 12:00:00 21.4 5 Oeste 9 Oeste 0 974 0 69
2018-09-05 11:00:00 20.2 6 Oeste 11 Sudoeste 0 974 0.6 75
2018-09-05 10:00:00 18.2 0 Calma 8 Nordeste 0 973.7 0.6 86
2018-09-05 09:00:00 17 0 Calma 9 Oeste 0 974 1 91
2018-09-05 08:00:00 15.8 5 Oeste 9 Oeste 0 973.4 0.3 96
2018-09-05 07:00:00 16 7 Oeste 9 Oeste 0 973.1 -0.1 94
2018-09-05 06:00:00 16.3 6 Sudoeste 11 Sudoeste 0 973 -0.3 93
2018-09-05 05:00:00 16.5 6 Oeste 11 Oeste 0.5 973.1 -0.4 94
2018-09-05 04:00:00 17 7 Oeste 11 Oeste 0.4 973.2 -0.2 91
2018-09-05 03:00:00 17.2 6 Oeste 11 Oeste 0 973.3 0.7 89
2018-09-05 02:00:00 17.6 7 Oeste 8 Oeste 0 973.5 0.5 92
2018-09-05 01:00:00 17.5 3 Noroeste 11 Oeste 0 973.4 0.1 91
2018-09-05 00:00:00 18.2 8 Oeste 15 Sur 0 972.6 1.1 87
2018-09-04 23:00:00 18.4 7 Sur 26 Oeste 1.8 973 2.8 84
2018-09-04 22:00:00 19.7 8 Oeste 24 Oeste 0.3 973.3 3.7 80
2018-09-04 21:00:00 22.9 12 Oeste 18 Oeste 0.1 971.5 2.4 60
2018-09-04 20:00:00 25.4 8 Noroeste 26 Noroeste 0 970.2 0.8 52
2018-09-04 19:00:00 28.1 12 Noroeste 22 Norte 0 969.6 -0.4 45
2018-09-04 18:00:00 29.6 9 Oeste 15 Oeste 0 969.1 -1.6 35
2018-09-04 17:00:00 29.5 8 Sudoeste 15 Oeste 0 969.4 -1.8 34
2018-09-04 16:00:00 28.9 9 Oeste 13 Oeste 0 970 -1.9 36
2018-09-04 15:00:00 27.9 5 Sur 13 Sudeste 0 970.7 -1.8 37
2018-09-04 14:00:00 26.2 6 Oeste 13 Oeste 0 971.2 -1.7 41
2018-09-04 13:00:00 24.6 7 Oeste 18 Oeste 0 971.9 -1 43
2018-09-04 12:00:00 22.5 11 Oeste 21 Oeste 0 972.5 -0.3 49
2018-09-04 11:00:00 20.8 10 Oeste 18 Oeste 0 972.9 0.3 58
2018-09-04 10:00:00 18.3 10 Oeste 15 Oeste 0 972.9 0.7 66
2018-09-04 09:00:00 16.2 10 Oeste 15 Oeste 0 972.8 0.2 74
2018-09-04 08:00:00 15 10 Oeste 15 Oeste 0 972.6 -0.4 77
2018-09-04 07:00:00 14.8 9 Oeste 13 Oeste 0 972.2 -0.5 81
2018-09-04 06:00:00 15 5 Oeste 9 Noroeste 0 972.6 0.2 79
2018-09-04 05:00:00 16.3 7 Oeste 17 Oeste 0 973 0.2 72
2018-09-04 04:00:00 17 10 Oeste 22 Oeste 0 972.7 -0.2 67
2018-09-04 03:00:00 18.6 13 Oeste 22 Oeste 0 972.4 -0.1 56
2018-09-04 02:00:00 18.9 5 Oeste 15 Oeste 0 972.8 0.5 56
2018-09-04 01:00:00 19.7 6 Oeste 17 Oeste 0 972.9 1.3 49
2018-09-04 00:00:00 20.6 11 Oeste 21 Norte 0 972.5 2.4 48
2018-09-03 23:00:00 21.4 9 Oeste 18 Oeste 0 972.3 2.9 47
2018-09-03 22:00:00 21.7 8 Oeste 9 Sudoeste 0 971.6 2.6 53
2018-09-03 21:00:00 23.3 4 Oeste 9 Norte 0 970.1 0.9 55
2018-09-03 20:00:00 27.2 6 Noroeste 21 Noroeste 0 969.4 -0.2 40
2018-09-03 19:00:00 27.1 6 Oeste 11 Este 0 969 -1.5 51
2018-09-03 18:00:00 30.1 9 Este 18 Este 0 969.2 -1.9 34
2018-09-03 17:00:00 29.9 7 Este 18 Sudeste 0 969.6 -2.1 35
2018-09-03 16:00:00 29.2 7 Este 17 Este 0 970.5 -2 34
2018-09-03 15:00:00 28.5 9 Este 17 Este 0 971.1 -1.3 40
2018-09-03 14:00:00 26.8 7 Sudeste 15 Sudeste 0 971.7 -1.4 45
2018-09-03 13:00:00 25 10 Sudeste 15 Sudeste 0 972.5 -0.7 50
2018-09-03 12:00:00 21.8 6 Oeste 13 Sudoeste 0 972.4 -0.5 57
2018-09-03 11:00:00 20.6 5 Oeste 13 Oeste 0 973.1 0.2 61
2018-09-03 10:00:00 18.4 9 Oeste 13 Noroeste 0 973.2 0.8 70
2018-09-03 09:00:00 17.1 5 Oeste 9 Sudoeste 0 972.9 0.8 76
2018-09-03 08:00:00 14.1 3 Norte 9 Norte 0 972.9 0.8 83
2018-09-03 07:00:00 14.4 3 Este 9 Nordeste 0 972.4 0.1 80
2018-09-03 06:00:00 15.2 2 Noroeste 9 Oeste 0 972.1 -0.4 83
2018-09-03 05:00:00 15.8 5 Noroeste 8 Noroeste 0 972.1 -0.5 82
2018-09-03 04:00:00 15.8 0 Calma -- -- 0 972.3 -0.3 83
2018-09-03 03:00:00 16.9 0 Calma -- -- 0 972.5 -0.3 78
2018-09-03 02:00:00 17.3 0 Calma 4 Noroeste 0 972.6 0 72
2018-09-03 01:00:00 18.9 2 Oeste 8 Norte 0 972.6 0.3 66
2018-09-03 00:00:00 20.3 2 Noroeste 8 Este 0 972.8 1.3 68
2018-09-02 23:00:00 22.2 8 Este 17 Este 0 972.6 2 48
2018-09-02 22:00:00 25.1 9 Este 18 Nordeste 0 972.3 1.7 39
2018-09-02 21:00:00 27.7 14 Este 21 Este 0 971.5 0.6 33
2018-09-02 20:00:00 31 5 Norte 9 Norte 0 970.6 -0.9 29
2018-09-02 19:00:00 31.7 6 Oeste 9 Oeste 0 970.6 -1.6 31
2018-09-02 18:00:00 33.6 4 Oeste 11 Sudeste 0 970.9 -2.3 23
2018-09-02 17:00:00 33.2 5 Nordeste 13 Este 0 971.5 -2.6 19
2018-09-02 16:00:00 32.3 3 Este 13 Nordeste 0 972.2 -2.6 19
2018-09-02 15:00:00 30.5 6 Norte 17 Este 0 973.2 -2.4 21
2018-09-02 14:00:00 29.2 7 Este 13 Este 0 974.1 -2 23
2018-09-02 13:00:00 26.6 8 Nordeste 15 Nordeste 0 974.8 -1.6 31
2018-09-02 12:00:00 24.5 7 Nordeste 11 Nordeste 0 975.6 -0.7 42
2018-09-02 11:00:00 21.7 4 Oeste 9 Noroeste 0 976.1 -0.2 60
2018-09-02 10:00:00 19.4 2 Noroeste 8 Noroeste 0 976.4 0.3 67
2018-09-02 09:00:00 16.7 0 Calma 4 Nordeste 0 976.3 0.1 78
2018-09-02 08:00:00 12.9 0 Calma 8 Sudoeste 0 976.3 -0.2 90
2018-09-02 07:00:00 14.2 6 Oeste 9 Oeste 0 976.1 -0.6 92
2018-09-02 06:00:00 14.3 7 Oeste 11 Sudoeste 0 976.2 -0.6 87
2018-09-02 05:00:00 14.2 6 Oeste 8 Sudoeste 0 976.5 -0.4 89
2018-09-02 04:00:00 14.5 0 Calma -- -- 0 976.7 -0.2 85
2018-09-02 03:00:00 15.5 0 Calma -- -- 0 976.8 -0.2 82
2018-09-02 02:00:00 16.5 0 Calma 5 Oeste 0 976.9 0.2 78
2018-09-02 01:00:00 16.9 3 Nordeste 8 Nordeste 0 976.9 0.7 70
2018-09-02 00:00:00 17.7 2 Norte 5 Nordeste 0 977 1.4 70
2018-09-01 23:00:00 19.6 0 Calma 5 Norte 0 976.7 1.5 66
2018-09-01 22:00:00 22.4 0 Calma 13 Este 0 976.2 1.4 57
2018-09-01 21:00:00 25 9 Este 18 Nordeste 0 975.6 1.1 37
2018-09-01 20:00:00 28.2 14 Nordeste 30 Nordeste 0 975.2 0.1 31
2018-09-01 19:00:00 30.8 19 Nordeste 26 Norte 0 974.8 -1.2 29
2018-09-01 18:00:00 32.1 5 Norte 15 Noroeste 0 974.5 -2.4 28
2018-09-01 17:00:00 31.3 7 Oeste 15 Oeste 0 975.1 -2.4 29
2018-09-01 16:00:00 30.8 6 Noroeste 11 Norte 0 976 -2.3 31
2018-09-01 15:00:00 29.1 5 Sudoeste 11 Sudoeste 0 976.9 -2.1 35
2018-09-01 14:00:00 27.5 6 Sur 15 Sur 0 977.5 -1.8 38
2018-09-01 13:00:00 25.6 7 Oeste 17 Noroeste 0 978.3 -1 44
2018-09-01 12:00:00 23.2 13 Oeste 21 Oeste 0 979 -0.4 55
2018-09-01 11:00:00 20.9 13 Oeste 21 Oeste 0 979.3 0.2 64
2018-09-01 10:00:00 19.3 10 Oeste 18 Oeste 0 979.3 0.5 71
2018-09-01 09:00:00 17 8 Oeste 13 Oeste 0 979.4 0.6 80
2018-09-01 08:00:00 15.3 9 Oeste 13 Oeste 0 979.1 -0.1 88
2018-09-01 07:00:00 15.3 6 Oeste 15 Oeste 0 978.8 -0.4 87
2018-09-01 06:00:00 15.6 8 Oeste 11 Oeste 0 978.8 -0.5 87
2018-09-01 05:00:00 16.4 6 Oeste 11 Oeste 0 979.2 -0.3 84
2018-09-01 04:00:00 16.9 7 Sudoeste 11 Oeste 0 979.2 -0.4 81
2018-09-01 03:00:00 17.1 8 Sudoeste 11 Oeste 0 979.3 -0.3 81
2018-09-01 02:00:00 17.7 5 Oeste 9 Oeste 0 979.5 0 80
2018-09-01 01:00:00 18.6 8 Oeste 11 Noroeste 0 979.6 0.6 74
2018-09-01 00:00:00 19.3 6 Oeste 13 Oeste 0 979.6 1.5 72
2018-08-31 23:00:00 20.2 3 Oeste 13 Noroeste 0 979.5 2.1 67
2018-08-31 22:00:00 21 5 Oeste 15 Oeste 0 979 1.9 63
2018-08-31 21:00:00 22.7 0 Calma 18 Norte 0 978.1 1.4 55
2018-08-31 20:00:00 25 8 Noroeste 26 Norte 0 977.4 0.5 48
2018-08-31 19:00:00 26.6 13 Norte 28 Norte 0 977.1 -0.4 42
2018-08-31 18:00:00 27.9 15 Norte 24 Norte 0 976.7 -1 39
2018-08-31 17:00:00 28.2 10 Noroeste 21 Noroeste 0 976.9 -1.2 37
2018-08-31 16:00:00 28.1 11 Noroeste 22 Oeste 0 977.5 -1.2 36
2018-08-31 15:00:00 27.2 10 Oeste 26 Sudoeste 0 977.7 -1.4 38
2018-08-31 14:00:00 26.1 13 Oeste 21 Oeste 0 978.1 -1.3 41
2018-08-31 13:00:00 24.6 12 Oeste 21 Oeste 0 978.7 -0.5 45
2018-08-31 12:00:00 23 10 Oeste 21 Oeste 0 979.1 -0.2 49
2018-08-31 11:00:00 21.1 10 Oeste 21 Oeste 0 979.4 0.2 58
2018-08-31 10:00:00 18.5 14 Oeste 21 Oeste 0 979.2 0.4 67
2018-08-31 09:00:00 16.5 13 Oeste 21 Oeste 0 979.3 0.4 74
2018-08-31 08:00:00 14.9 10 Oeste 21 Oeste 0 979.2 0.2 81
2018-08-31 07:00:00 14.8 11 Oeste 15 Oeste 0 978.8 -0.3 80
2018-08-31 06:00:00 14.4 6 Oeste 11 Oeste 0 978.9 -0.6 85
2018-08-31 05:00:00 15.5 7 Oeste 11 Oeste 0 979 -0.5 77
2018-08-31 04:00:00 15.6 8 Sudoeste 11 Sudoeste 0 979.1 -0.4 76
2018-08-31 03:00:00 15.8 5 Oeste 9 Oeste 0 979.5 0.1 80
2018-08-31 02:00:00 16.4 0 Calma 8 Oeste 0 979.5 0 70
2018-08-31 01:00:00 18 4 Sudoeste 8 Sudoeste 0 979.5 0.6 64
2018-08-31 00:00:00 18.4 0 Calma 9 Oeste 0 979.4 1.3 66
2018-08-30 23:00:00 20.1 6 Oeste 11 Oeste 0 979.5 2.2 57
2018-08-30 22:00:00 21.2 9 Sudoeste 17 Oeste 0 978.9 2 54
2018-08-30 21:00:00 22.4 7 Noroeste 18 Noroeste 0 978.1 1.7 51
2018-08-30 20:00:00 24.6 10 Noroeste 24 Norte 0 977.3 0.9 48
2018-08-30 19:00:00 26.3 12 Noroeste 24 Noroeste 0 976.9 0 44
2018-08-30 18:00:00 28.2 12 Noroeste 22 Noroeste 0 976.4 -1.1 42
2018-08-30 17:00:00 28.6 8 Oeste 18 Oeste 0 976.4 -1.8 39
2018-08-30 16:00:00 27.8 12 Sudoeste 21 Oeste 0 976.9 -2 40
2018-08-30 15:00:00 26.4 12 Oeste 17 Oeste 0 977.5 -2.1 45
2018-08-30 14:00:00 25.3 8 Oeste 17 Oeste 0 978.2 -1.5 47
2018-08-30 13:00:00 23.5 9 Oeste 22 Oeste 0 978.9 -0.6 52
2018-08-30 12:00:00 22.5 10 Oeste 18 Sudoeste 0 979.6 0 56
2018-08-30 11:00:00 21 12 Oeste 17 Oeste 0 979.7 0.1 63
2018-08-30 10:00:00 19.6 9 Oeste 13 Oeste 0 979.5 0.1 68
2018-08-30 09:00:00 17.9 5 Oeste 8 Oeste 0 979.6 0.3 75
2018-08-30 08:00:00 16.2 0 Calma 9 Sudoeste 0 979.6 0.1 82
2018-08-30 07:00:00 16.7 5 Oeste 11 Oeste 0 979.4 -0.5 82
2018-08-30 06:00:00 16.4 6 Oeste 9 Oeste 0 979.3 -1.1 82
2018-08-30 05:00:00 17.5 5 Oeste 11 Oeste 0 979.5 -1.1 77
2018-08-30 04:00:00 18.1 8 Oeste 13 Sudoeste 0 979.9 -0.8 74
2018-08-30 03:00:00 18.6 8 Oeste 17 Oeste 0 980.4 -0.2 72
2018-08-30 02:00:00 18.9 8 Oeste 15 Oeste 0 980.6 0.4 71
2018-08-30 01:00:00 18.6 4 Oeste 9 Oeste 0 980.7 0.8 74
2018-08-30 00:00:00 19.4 6 Oeste 15 Oeste 0 980.6 1.5 71
2018-08-29 23:00:00 20.1 9 Oeste 13 Oeste 0 980.2 2 69
2018-08-29 22:00:00 20.3 8 Oeste 11 Oeste 0 979.9 2.2 68
2018-08-29 21:00:00 21.2 6 Noroeste 11 Oeste 0 979.1 2.1 67
2018-08-29 20:00:00 22.9 7 Oeste 30 Norte 0 978.2 1.6 61
2018-08-29 19:00:00 24.3 21 Norte 37 Norte 0 977.7 1.1 56
2018-08-29 18:00:00 26.4 17 Norte 37 Norte 0 977 0.3 50
2018-08-29 17:00:00 28.4 12 Norte 30 Norte 0 976.6 -0.3 40
2018-08-29 16:00:00 29.3 12 Noroeste 22 Norte 0 976.6 -0.7 39
2018-08-29 15:00:00 28.7 6 Norte 22 Sudoeste 0 976.7 -0.9 39
2018-08-29 14:00:00 27.4 10 Noroeste 21 Oeste 0 976.9 -0.6 45
2018-08-29 13:00:00 26.9 9 Oeste 24 Oeste 0 977.3 0.1 46
2018-08-29 12:00:00 25.1 16 Oeste 22 Oeste 0 977.6 0.8 51
2018-08-29 11:00:00 23.6 14 Oeste 24 Oeste 0 977.5 1.4 57
2018-08-29 10:00:00 21.7 14 Oeste 18 Oeste 0 977.2 1.7 63
2018-08-29 09:00:00 19.3 11 Oeste 18 Oeste 0 976.8 1.7 70
2018-08-29 08:00:00 17.7 11 Oeste 17 Oeste 0 976.1 1.3 74
2018-08-29 07:00:00 17.9 9 Oeste 13 Sudoeste 0 975.5 0.6 72
2018-08-29 06:00:00 18 9 Oeste 13 Oeste 0 975.1 0.1 75
2018-08-29 05:00:00 19.6 9 Oeste 15 Oeste 0 974.8 -0.2 69
2018-08-29 04:00:00 19.2 6 Sudoeste 9 Oeste 0 974.9 0.3 72
2018-08-29 03:00:00 19.3 7 Oeste 11 Oeste 0 975 1.1 74
2018-08-29 02:00:00 19.9 0 Calma 8 Sur 0 975 1.7 70
2018-08-29 01:00:00 21.7 2 Oeste 9 Oeste 0 974.6 2 63
2018-08-29 00:00:00 22 7 Oeste 13 Oeste 0 973.9 3.5 60
2018-08-28 23:00:00 22 6 Oeste 13 Oeste 0 973.3 5.1 58
2018-08-28 22:00:00 24.6 12 Oeste 28 Sudoeste 0 972.6 5.3 42
2018-08-28 21:00:00 25.9 13 Noroeste 48 Noroeste 0 970.4 2.9 42
2018-08-28 20:00:00 35 14 Oeste 32 Sur 0 968.2 -0.2 21
2018-08-28 19:00:00 34.7 20 Sur 41 Sudoeste 0 967.3 -1.9 19
2018-08-28 18:00:00 37.6 23 Sudoeste 42 Sudeste 0 967.5 -3 12
2018-08-28 17:00:00 33 28 Este 46 Este 0 968.4 -2.8 37
2018-08-28 16:00:00 33.8 31 Este 45 Este 0 969.2 -2.8 36
2018-08-28 15:00:00 31.3 32 Este 48 Este 0 970.5 -2.2 43
2018-08-28 14:00:00 31.5 33 Este 46 Este 0 971.2 -2.4 44
2018-08-28 13:00:00 29.5 33 Este 46 Este 0 972 -1.8 51
2018-08-28 12:00:00 27.9 30 Este 45 Este 0 972.7 -0.9 59
2018-08-28 11:00:00 25.7 27 Este 39 Este 0 973.6 0.2 66
2018-08-28 10:00:00 24.7 26 Este 37 Este 0 973.8 0.7 69
2018-08-28 09:00:00 22.5 13 Este 22 Este 0 973.6 0.8 74
2018-08-28 08:00:00 20.5 11 Este 24 Este 0 973.4 0.3 75
2018-08-28 07:00:00 19.2 9 Este 17 Este 0 973.1 -0.1 77
2018-08-28 06:00:00 17.6 13 Este 15 Este 0 972.8 -0.7 81
2018-08-28 05:00:00 17.5 6 Este 8 Este 0 973.1 -0.4 85
2018-08-28 04:00:00 18.4 0 Calma -- -- 0 973.2 -0.2 82
2018-08-28 03:00:00 18.7 0 Calma -- -- 0 973.5 0.3 80
2018-08-28 02:00:00 20 0 Calma 9 Este 0 973.5 0.7 79
2018-08-28 01:00:00 20.6 9 Este 11 Este 0 973.4 0.6 69
2018-08-28 00:00:00 21.5 3 Nordeste 9 Este 0 973.2 0.7 65
2018-08-27 23:00:00 22.5 9 Este 22 Nordeste 0 972.8 0.4 55
2018-08-27 22:00:00 25.8 5 Norte 13 Sudeste 0 972.8 0.5 47
2018-08-27 21:00:00 30.1 7 Sudeste 13 Sudeste 0 972.5 0.3 28
2018-08-27 20:00:00 31.8 9 Este 17 Este 0 972.4 0 26
2018-08-27 19:00:00 33.9 8 Este 17 Este 0 972.3 -0.6 22
2018-08-27 18:00:00 34 10 Este 21 Este 0 972.2 -1.3 24
2018-08-27 17:00:00 33.6 9 Este 21 Este 0 972.4 -1.8 23
2018-08-27 16:00:00 32.9 10 Este 18 Nordeste 0 972.9 -1.8 26
2018-08-27 15:00:00 31.4 10 Este 22 Este 0 973.5 -1.6 29
2018-08-27 14:00:00 29.7 8 Este 18 Este 0 974.2 -1.1 32
2018-08-27 13:00:00 28.6 7 Este 17 Este 0 974.7 -0.6 33
2018-08-27 12:00:00 25.6 5 Norte 9 Noroeste 0 975.1 -0.1 41
2018-08-27 11:00:00 22.9 6 Noroeste 11 Noroeste 0 975.3 0.2 56
2018-08-27 10:00:00 20.6 4 Oeste 11 Oeste 0 975.3 0.7 66
2018-08-27 09:00:00 18.1 9 Oeste 13 Oeste 0 975.2 0.9 75
2018-08-27 08:00:00 15.7 7 Oeste 9 Oeste 0 975.1 0.8 84
2018-08-27 07:00:00 15.8 7 Oeste 13 Sudoeste 0 974.6 0.2 83
2018-08-27 06:00:00 15.5 7 Sudoeste 9 Sudoeste 0 974.3 -0.2 84
2018-08-27 05:00:00 15.6 0 Calma 8 Oeste 0 974.3 -0.1 87
2018-08-27 04:00:00 16.8 7 Oeste 11 Sudoeste 0 974.4 0 81
2018-08-27 03:00:00 17.1 5 Oeste 9 Oeste 0 974.5 0.4 80
2018-08-27 02:00:00 18.5 6 Oeste 9 Sudoeste 0 974.4 0.8 71
2018-08-27 01:00:00 18.8 0 Calma 11 Oeste 0 974.4 1.4 72
2018-08-27 00:00:00 20 7 Sudoeste 9 Sudoeste 0 974.1 2.1 67
2018-08-26 23:00:00 20.1 0 Calma 5 Noroeste 0 973.6 2.2 74
2018-08-26 22:00:00 22.4 3 Sudeste 9 Sudeste 0 973 1.8 57
2018-08-26 21:00:00 25.6 3 Oeste 9 Norte 0 972 0.6 42
2018-08-26 20:00:00 28.9 8 Norte 13 Norte 0 971.4 -0.4 35
2018-08-26 19:00:00 30.5 6 Oeste 15 Oeste 0 971.2 -1.3 29
2018-08-26 18:00:00 30.7 7 Oeste 17 Noroeste 0 971.4 -1.9 28
2018-08-26 17:00:00 30 7 Oeste 15 Oeste 0 971.8 -2.2 29
2018-08-26 16:00:00 28.8 5 Oeste 17 Noroeste 0 972.5 -2.2 31
2018-08-26 15:00:00 26.9 7 Oeste 17 Oeste 0 973.3 -2 35
2018-08-26 14:00:00 25 9 Oeste 15 Oeste 0 974 -1.7 40
2018-08-26 13:00:00 23.8 4 Oeste 13 Oeste 0 974.7 -1.2 43
2018-08-26 12:00:00 21.9 5 Oeste 9 Oeste 0 975.3 -0.8 49
2018-08-26 11:00:00 19.6 7 Oeste 13 Oeste 0 975.7 -0.3 59
2018-08-26 10:00:00 16.9 9 Oeste 15 Oeste 0 975.9 0.2 67
2018-08-26 09:00:00 15 6 Oeste 9 Oeste 0 976.1 0.5 74
2018-08-26 08:00:00 12.9 3 Este 8 Oeste 0 976 0.2 84
2018-08-26 07:00:00 13.1 5 Oeste 13 Oeste 0 975.7 -0.5 84
2018-08-26 06:00:00 13.3 10 Oeste 13 Oeste 0 975.6 -1.2 82
2018-08-26 05:00:00 13.3 9 Oeste 11 Oeste 0 975.8 -1.3 83
2018-08-26 04:00:00 13.8 6 Oeste 11 Oeste 0 976.2 -1.1 81
2018-08-26 03:00:00 13.8 7 Oeste 11 Oeste 0 976.8 -0.6 82
2018-08-26 02:00:00 14.4 5 Oeste 8 Oeste 0 977.1 -0.2 81
2018-08-26 01:00:00 15.4 4 Oeste 13 Sudoeste 0 977.3 0.3 74
2018-08-26 00:00:00 16.5 9 Sudoeste 15 Oeste 0 977.4 1.2 68
2018-08-25 23:00:00 16.7 9 Oeste 11 Oeste 0 977.3 1.9 67
2018-08-25 22:00:00 17.7 7 Oeste 21 Norte 0 977 1.9 63
2018-08-25 21:00:00 18.9 10 Noroeste 28 Norte 0 976.2 1.3 58
2018-08-25 20:00:00 20.9 13 Norte 28 Noroeste 0 975.4 0.3 51
2018-08-25 19:00:00 22.2 15 Noroeste 32 Norte 0 975.1 -0.3 49
2018-08-25 18:00:00 23.6 17 Norte 45 Norte 0 974.9 -0.8 43
2018-08-25 17:00:00 23.9 13 Noroeste 26 Noroeste 0 975.1 -1.1 40
2018-08-25 16:00:00 24.8 15 Norte 28 Norte 0 975.4 -1.5 39
2018-08-25 15:00:00 24.1 10 Noroeste 22 Noroeste 0 975.7 -1.8 39
2018-08-25 14:00:00 23.6 9 Oeste 21 Oeste 0 976.2 -1.5 40
2018-08-25 13:00:00 22.6 12 Noroeste 22 Oeste 0 976.9 -0.6 42
2018-08-25 12:00:00 20.6 13 Oeste 28 Sudoeste 0 977.5 -0.1 50
2018-08-25 11:00:00 20.4 10 Oeste 18 Oeste 0 977.7 0.3 55
2018-08-25 10:00:00 18.3 9 Oeste 15 Oeste 0 977.5 0 70
2018-08-25 09:00:00 15.3 5 Oeste 9 Oeste 0 977.6 0.3 85
2018-08-25 08:00:00 14.2 7 Oeste 13 Sudoeste 0 977.4 -0.2 90
2018-08-25 07:00:00 13.2 6 Oeste 11 Oeste 0 977.5 -0.3 92
2018-08-25 06:00:00 13.4 5 Oeste 11 Oeste 0 977.3 -0.8 91
2018-08-25 05:00:00 13.8 8 Noroeste 11 Oeste 0 977.6 -0.6 88
2018-08-25 04:00:00 14.3 7 Oeste 9 Oeste 0 977.8 -0.7 87
2018-08-25 03:00:00 14.8 8 Oeste 13 Oeste 0 978.1 -0.7 84
2018-08-25 02:00:00 15.5 5 Oeste 11 Oeste 0 978.2 -0.7 81
2018-08-25 01:00:00 16.7 6 Oeste 13 Oeste 0 978.5 -0.2 73
2018-08-25 00:00:00 17.6 10 Oeste 15 Oeste 0 978.8 0.7 69
2018-08-24 23:00:00 17.8 8 Oeste 17 Oeste 0 978.9 1.1 70
2018-08-24 22:00:00 18.6 10 Oeste 15 Sudoeste 0 978.7 1.1 67
2018-08-24 21:00:00 19.6 9 Oeste 22 Noroeste 0 978.1 0.9 61
2018-08-24 20:00:00 21.8 15 Noroeste 30 Norte 0 977.8 0.6 52
2018-08-24 19:00:00 23.6 16 Noroeste 30 Noroeste 0 977.6 0 46
2018-08-24 18:00:00 25.3 14 Noroeste 28 Noroeste 0 977.2 -0.8 43
2018-08-24 17:00:00 26.2 12 Noroeste 22 Noroeste 0 977.2 -1.4 41
2018-08-24 16:00:00 26.2 13 Noroeste 24 Oeste 0 977.6 -1.2 44
2018-08-24 15:00:00 25.7 9 Oeste 26 Oeste 0 978 -1 48
2018-08-24 14:00:00 24.4 15 Oeste 24 Oeste 0 978.6 -0.7 54
2018-08-24 13:00:00 24 15 Oeste 28 Oeste 0 978.8 -0.3 55
2018-08-24 12:00:00 22.7 13 Oeste 21 Oeste 0 979 0.3 59
2018-08-24 11:00:00 22.7 12 Oeste 18 Oeste 0 979.3 0.7 59
2018-08-24 10:00:00 21.2 9 Oeste 15 Noroeste 0 979.1 0.7 68
2018-08-24 09:00:00 18.5 7 Oeste 11 Oeste 0 978.7 0.7 79
2018-08-24 08:00:00 16.6 5 Oeste 11 Oeste 0 978.6 -0.2 85
2018-08-24 07:00:00 17.3 7 Oeste 15 Oeste 0 978.4 0 82
2018-08-24 06:00:00 18.4 8 Oeste 15 Oeste 0 978 -0.4 77
2018-08-24 05:00:00 18.5 6 Oeste 17 Oeste 0 978.8 -0.2 80
2018-08-24 04:00:00 17.8 8 Oeste 13 Oeste 0 978.4 -0.7 84
2018-08-24 03:00:00 18.5 9 Oeste 13 Oeste 0 978.4 -0.6 79
2018-08-24 02:00:00 19.1 9 Oeste 13 Oeste 0 979 0.1 76
2018-08-24 01:00:00 19.9 8 Oeste 17 Oeste 0 979.1 0.7 72
2018-08-24 00:00:00 20.6 9 Oeste 17 Oeste 0 979 1.9 71
2018-08-23 23:00:00 21.5 4 Sudoeste 11 Sudoeste 0 978.9 2.6 66
2018-08-23 22:00:00 22.2 6 Sudoeste 17 Noroeste 0 978.4 2.6 62
2018-08-23 21:00:00 23.5 7 Noroeste 22 Noroeste 0 977.1 1.2 56
2018-08-23 20:00:00 25.3 9 Noroeste 28 Norte 0 976.3 0.5 52
2018-08-23 19:00:00 26.6 12 Noroeste 24 Noroeste 0 975.8 -0.4 50
2018-08-23 18:00:00 27.8 12 Noroeste 24 Oeste 0 975.9 -0.8 47
2018-08-23 17:00:00 27.2 12 Oeste 24 Oeste 0 975.8 -1.2 50
2018-08-23 16:00:00 27.3 13 Oeste 26 Oeste 0 976.2 -1.1 52
2018-08-23 15:00:00 26.6 14 Oeste 22 Sudoeste 0 976.7 -0.5 54
2018-08-23 14:00:00 25.3 12 Oeste 18 Oeste 0 977 0.2 59
2018-08-23 13:00:00 24.4 10 Oeste 18 Oeste 0 977.3 0.5 62
2018-08-23 12:00:00 24.6 12 Oeste 22 Oeste 0 977.2 0.6 63
2018-08-23 11:00:00 23.8 12 Oeste 21 Oeste 0 976.8 0.7 66
2018-08-23 10:00:00 21.9 13 Oeste 21 Oeste 0 976.8 1 72
2018-08-23 09:00:00 20.2 14 Oeste 22 Oeste 0 976.6 1 79
2018-08-23 08:00:00 18.9 8 Oeste 11 Oeste 0 976.1 0.2 86
2018-08-23 07:00:00 19.3 6 Oeste 17 Oeste 0 975.8 -0.2 84
2018-08-23 06:00:00 19.4 13 Oeste 18 Oeste 0 975.6 -0.3 84
2018-08-23 05:00:00 19.3 6 Oeste 11 Oeste 0 975.9 0.1 82
2018-08-23 04:00:00 19.3 4 Oeste 5 Sudoeste 0 976 0.1 87
2018-08-23 03:00:00 20.2 2 Este 9 Oeste 0 975.9 0.3 80
2018-08-23 02:00:00 21.5 7 Oeste 13 Oeste 0 975.8 0.4 75
2018-08-23 01:00:00 20.7 0 Calma 8 Oeste 0 975.9 1.3 82
2018-08-23 00:00:00 21.9 0 Calma 9 Oeste 0 975.6 2.1 80